createdAt,value
2024-01-14T00:00:07.956Z,44.47
2024-01-14T00:02:38.564Z,45.57
2024-01-14T00:05:07.887Z,48.40
2024-01-14T00:07:37.346Z,47.50
2024-01-14T00:10:06.554Z,43.73
2024-01-14T00:12:35.060Z,41.73
2024-01-14T00:15:03.434Z,47.40
2024-01-14T00:17:34.161Z,47.07
2024-01-14T00:20:05.259Z,45.80
2024-01-14T00:22:33.243Z,38.43
2024-01-14T00:25:01.187Z,44.77
2024-01-14T00:27:29.290Z,49.60
2024-01-14T00:29:59.490Z,43.23
2024-01-14T00:32:27.543Z,41.50
2024-01-14T00:34:55.807Z,47.13
2024-01-14T00:37:25.866Z,45.63
2024-01-14T00:39:53.914Z,44.00
2024-01-14T00:42:22.238Z,39.60
2024-01-14T00:44:50.411Z,38.97
2024-01-14T00:47:18.543Z,39.33
2024-01-14T00:49:46.642Z,44.93
2024-01-14T00:52:14.868Z,39.07
2024-01-14T00:54:44.461Z,40.23
2024-01-14T00:57:12.547Z,37.53
2024-01-14T00:59:40.623Z,38.67
2024-01-14T01:02:08.757Z,38.20
2024-01-14T01:04:36.725Z,39.43
2024-01-14T01:07:05.109Z,48.37
2024-01-14T01:09:33.282Z,45.33
2024-01-14T01:12:02.848Z,51.77
2024-01-14T01:14:31.712Z,47.37
2024-01-14T01:16:59.660Z,48.83
2024-01-14T01:19:28.318Z,49.33
2024-01-14T01:21:56.306Z,49.33
2024-01-14T01:24:24.232Z,52.40
2024-01-14T01:26:52.782Z,48.57
2024-01-14T01:29:22.773Z,56.17
2024-01-14T01:31:55.730Z,52.80
2024-01-14T01:34:26.748Z,51.53
2024-01-14T01:36:54.885Z,57.47
2024-01-14T01:39:22.936Z,52.27
2024-01-14T01:41:51.346Z,56.53
2024-01-14T01:44:19.417Z,54.57
2024-01-14T01:46:49.012Z,51.63
2024-01-14T01:49:17.156Z,56.13
2024-01-14T01:51:48.412Z,50.50
2024-01-14T01:54:16.778Z,50.83
2024-01-14T01:56:44.728Z,45.40
2024-01-14T01:59:12.666Z,46.57
2024-01-14T02:01:40.804Z,43.73
2024-01-14T02:04:10.474Z,42.83
2024-01-14T02:06:38.906Z,44.23
2024-01-14T02:09:08.883Z,45.07
2024-01-14T02:11:37.003Z,42.07
2024-01-14T02:14:04.869Z,46.63
2024-01-14T02:16:32.864Z,47.93
2024-01-14T02:19:01.125Z,43.40
2024-01-14T02:21:32.697Z,44.53
2024-01-14T02:24:04.539Z,49.17
2024-01-14T02:26:34.003Z,49.60
2024-01-14T02:29:04.508Z,45.63
2024-01-14T02:31:33.777Z,55.73
2024-01-14T02:34:02.422Z,53.80
2024-01-14T02:36:30.562Z,45.83
2024-01-14T02:38:58.760Z,41.73
2024-01-14T02:41:27.016Z,46.00
2024-01-14T02:43:56.525Z,47.07
2024-01-14T02:46:24.480Z,44.33
2024-01-14T02:48:52.410Z,46.73
2024-01-14T02:51:22.753Z,43.37
2024-01-14T02:53:51.773Z,47.73
2024-01-14T02:56:19.910Z,39.17
2024-01-14T02:58:47.914Z,41.67
2024-01-14T03:01:19.021Z,48.20
2024-01-14T03:03:47.032Z,43.47
2024-01-14T03:06:15.406Z,48.17
2024-01-14T03:08:49.701Z,42.73
2024-01-14T03:11:17.828Z,43.13
2024-01-14T03:13:45.876Z,40.60
2024-01-14T03:16:13.985Z,44.80
2024-01-14T03:18:43.621Z,40.97
2024-01-14T03:21:19.018Z,44.70
2024-01-14T03:23:47.022Z,45.07
2024-01-14T03:26:15.410Z,44.50
2024-01-14T03:28:43.555Z,41.97
2024-01-14T03:31:15.751Z,40.93
2024-01-14T03:33:45.344Z,40.23
2024-01-14T03:36:15.249Z,39.60
2024-01-14T03:38:43.507Z,40.50
2024-01-14T03:41:11.581Z,40.03
2024-01-14T03:43:39.605Z,39.90
2024-01-14T03:46:23.126Z,39.53
2024-01-14T03:48:52.678Z,37.93
2024-01-14T03:51:20.747Z,39.40
2024-01-14T03:53:48.798Z,41.30
2024-01-14T03:56:16.846Z,48.87
2024-01-14T03:58:44.872Z,42.97
2024-01-14T04:01:17.616Z,44.87
2024-01-14T04:03:45.840Z,46.03
2024-01-14T04:06:15.549Z,44.27
2024-01-14T04:08:43.697Z,45.77
2024-01-14T04:11:11.695Z,47.17
2024-01-14T04:13:39.642Z,42.80
2024-01-14T04:16:08.949Z,51.13
2024-01-14T04:18:37.486Z,52.97
2024-01-14T04:21:06.102Z,54.33
2024-01-14T04:23:35.510Z,49.83
2024-01-14T04:26:07.102Z,45.87
2024-01-14T04:28:35.075Z,48.27
2024-01-14T04:31:03.215Z,49.60
2024-01-14T04:33:31.374Z,46.77
2024-01-14T04:35:59.409Z,43.93
2024-01-14T04:38:27.303Z,50.63
2024-01-14T04:40:56.765Z,51.23
2024-01-14T04:43:24.749Z,47.67
2024-01-14T04:45:52.598Z,44.50
2024-01-14T04:48:20.802Z,51.30
2024-01-14T04:50:48.908Z,44.60
2024-01-14T04:53:16.786Z,42.80
2024-01-14T04:55:44.783Z,38.93
2024-01-14T04:58:14.196Z,42.27
2024-01-14T05:00:42.189Z,44.73
2024-01-14T05:03:10.279Z,45.90
2024-01-14T05:05:38.271Z,45.87
2024-01-14T05:08:06.707Z,43.90
2024-01-14T05:10:34.663Z,46.03
2024-01-14T05:13:02.542Z,45.97
2024-01-14T05:15:31.867Z,46.37
2024-01-14T05:18:00.226Z,44.53
2024-01-14T05:20:28.668Z,45.53
2024-01-14T05:22:56.687Z,44.40
2024-01-14T05:25:24.551Z,42.10
2024-01-14T05:27:52.577Z,40.87
2024-01-14T05:30:20.881Z,42.63
2024-01-14T05:32:50.288Z,46.43
2024-01-14T05:35:18.456Z,46.10
2024-01-14T05:37:46.434Z,40.03
2024-01-14T05:40:14.659Z,36.30
2024-01-14T05:42:43.086Z,43.47
2024-01-14T05:45:12.247Z,37.60
2024-01-14T05:47:40.512Z,37.07
2024-01-14T05:50:10.884Z,43.00
2024-01-14T05:52:38.815Z,36.37
2024-01-14T05:55:06.797Z,37.50
2024-01-14T05:57:34.780Z,37.33
2024-01-14T06:00:02.781Z,43.10
2024-01-14T06:02:30.845Z,37.00
2024-01-14T06:04:58.910Z,35.23
2024-01-14T06:07:28.321Z,34.07
2024-01-14T06:09:56.199Z,39.47
2024-01-14T06:12:24.100Z,46.37
2024-01-14T06:14:52.096Z,39.03
2024-01-14T06:17:19.954Z,41.10
2024-01-14T06:19:47.959Z,43.50
2024-01-14T06:22:15.842Z,40.00
2024-01-14T06:24:45.938Z,43.43
2024-01-14T06:27:13.790Z,39.77
2024-01-14T06:29:41.892Z,35.50
2024-01-14T06:32:09.659Z,39.37
2024-01-14T06:34:37.564Z,40.97
2024-01-14T06:37:06.100Z,40.83
2024-01-14T06:39:33.927Z,39.63
2024-01-14T06:42:03.145Z,35.00
2024-01-14T06:44:30.952Z,41.33
2024-01-14T06:46:58.737Z,32.83
2024-01-14T06:49:26.564Z,34.57
2024-01-14T06:51:54.443Z,35.83
2024-01-14T06:54:22.301Z,34.70
2024-01-14T06:56:50.078Z,39.30
2024-01-14T06:59:20.408Z,37.00
2024-01-14T07:01:48.489Z,38.87
2024-01-14T07:04:16.985Z,38.70
2024-01-14T07:06:44.919Z,35.60
2024-01-14T07:09:13.862Z,38.87
2024-01-14T07:11:41.955Z,33.53
2024-01-14T07:14:09.818Z,33.10
2024-01-14T07:16:38.969Z,35.13
2024-01-14T07:19:07.035Z,33.47
2024-01-14T07:21:34.999Z,32.33
2024-01-14T07:24:03.016Z,41.77
2024-01-14T07:26:30.952Z,37.63
2024-01-14T07:28:58.854Z,36.73
2024-01-14T07:31:29.006Z,35.40
2024-01-14T07:33:58.646Z,35.03
2024-01-14T07:36:26.684Z,37.43
2024-01-14T07:38:55.308Z,35.33
2024-01-14T07:41:23.205Z,34.53
2024-01-14T07:43:50.982Z,35.70
2024-01-14T07:46:19.817Z,38.23
2024-01-14T07:48:47.729Z,34.10
2024-01-14T07:51:17.046Z,39.27
2024-01-14T07:53:44.875Z,33.63
2024-01-14T07:56:12.817Z,47.17
2024-01-14T07:58:40.556Z,31.00
2024-01-14T08:01:08.485Z,34.97
2024-01-14T08:03:37.685Z,34.23
2024-01-14T08:06:06.479Z,32.07
2024-01-14T08:08:35.813Z,30.00
2024-01-14T08:11:03.631Z,34.60
2024-01-14T08:13:31.463Z,32.53
2024-01-14T08:16:02.698Z,37.43
2024-01-14T08:18:32.565Z,30.07
2024-01-14T08:21:01.354Z,28.10
2024-01-14T08:23:30.967Z,28.53
2024-01-14T08:26:00.293Z,25.40
2024-01-14T08:28:28.150Z,24.23
2024-01-14T08:30:56.039Z,26.13
2024-01-14T08:33:24.056Z,23.70
2024-01-14T08:35:52.102Z,20.80
2024-01-14T08:38:20.271Z,21.50
2024-01-14T08:40:48.095Z,21.70
2024-01-14T08:43:17.498Z,21.37
2024-01-14T08:45:45.367Z,21.63
2024-01-14T08:48:14.554Z,18.17
2024-01-14T08:50:42.556Z,22.07
2024-01-14T08:53:10.404Z,21.87
2024-01-14T08:55:38.244Z,17.63
2024-01-14T08:58:05.969Z,21.77
2024-01-14T09:00:35.272Z,21.20
2024-01-14T09:03:03.167Z,22.33
2024-01-14T09:05:31.015Z,24.03
2024-01-14T09:07:58.782Z,25.20
2024-01-14T09:10:26.485Z,20.33
2024-01-14T09:12:54.153Z,22.00
2024-01-14T09:15:22.097Z,21.47
2024-01-14T09:17:52.676Z,20.13
2024-01-14T09:20:21.125Z,24.73
2024-01-14T09:22:48.961Z,22.90
2024-01-14T09:25:17.129Z,22.87
2024-01-14T09:27:44.930Z,23.27
2024-01-14T09:30:14.258Z,21.83
2024-01-14T09:32:42.437Z,27.50
2024-01-14T09:35:12.030Z,23.03
2024-01-14T09:37:39.910Z,24.10
2024-01-14T09:40:09.042Z,25.73
2024-01-14T09:42:36.998Z,24.47
2024-01-14T09:45:06.863Z,21.57
2024-01-14T09:47:35.181Z,21.40
2024-01-14T09:50:04.496Z,20.77
2024-01-14T09:52:33.864Z,18.00
2024-01-14T09:55:01.899Z,18.00
2024-01-14T09:57:30.771Z,14.87
2024-01-14T09:59:59.305Z,14.03
2024-01-14T10:02:28.127Z,12.20
2024-01-14T10:04:55.928Z,17.10
2024-01-14T10:07:23.816Z,16.33
2024-01-14T10:09:53.482Z,15.30
2024-01-14T10:12:21.301Z,16.00
2024-01-14T10:14:58.411Z,15.30
2024-01-14T10:17:26.207Z,15.23
2024-01-14T10:19:54.750Z,15.70
2024-01-14T10:22:22.837Z,15.53
2024-01-14T10:24:55.149Z,19.90
2024-01-14T10:27:34.429Z,16.83
2024-01-14T10:30:06.994Z,17.57
2024-01-14T10:33:15.096Z,18.93
2024-01-14T10:35:26.627Z,18.80
2024-01-14T10:37:54.620Z,15.90
2024-01-14T10:40:23.812Z,14.33
2024-01-14T10:42:51.606Z,16.60
2024-01-14T10:45:19.851Z,16.77
2024-01-14T10:47:49.540Z,15.33
2024-01-14T10:50:19.105Z,15.23
2024-01-14T10:52:50.635Z,14.77
2024-01-14T10:55:28.276Z,15.53
2024-01-14T10:57:56.075Z,14.70
2024-01-14T11:00:24.198Z,13.63
2024-01-14T11:02:52.212Z,14.73
2024-01-14T11:05:20.195Z,15.00
2024-01-14T11:07:48.129Z,13.13
2024-01-14T11:10:16.280Z,12.50
2024-01-14T11:12:49.105Z,13.20
2024-01-14T11:15:23.264Z,13.33
2024-01-14T11:17:55.841Z,12.70
2024-01-14T11:20:32.200Z,11.30
2024-01-14T11:23:07.425Z,12.17
2024-01-14T11:25:36.249Z,14.03
2024-01-14T11:28:07.666Z,13.13
2024-01-14T11:30:51.170Z,12.90
2024-01-14T11:33:29.183Z,12.33
2024-01-14T11:35:57.601Z,12.03
2024-01-14T11:38:35.644Z,15.33
2024-01-14T11:41:25.643Z,14.17
2024-01-14T11:43:55.782Z,12.83
2024-01-14T11:46:52.616Z,14.20
2024-01-14T11:49:25.557Z,13.10
2024-01-14T11:51:54.067Z,16.37
2024-01-14T11:54:22.965Z,15.53
2024-01-14T11:56:50.841Z,12.40
2024-01-14T11:59:34.163Z,11.17
2024-01-14T12:02:16.099Z,12.73
2024-01-14T12:04:47.330Z,10.97
2024-01-14T12:07:21.813Z,11.13
2024-01-14T12:09:54.367Z,11.80
2024-01-14T12:12:23.731Z,14.13
2024-01-14T12:14:53.936Z,11.27
2024-01-14T12:17:21.992Z,13.30
2024-01-14T12:19:57.822Z,12.20
2024-01-14T12:22:26.315Z,11.27
2024-01-14T12:24:54.303Z,14.37
2024-01-14T12:27:22.476Z,11.50
2024-01-14T12:29:50.632Z,9.20
2024-01-14T12:32:20.234Z,12.87
2024-01-14T12:34:51.182Z,10.70
2024-01-14T12:37:19.236Z,11.07
2024-01-14T12:39:47.310Z,11.17
2024-01-14T12:42:15.426Z,13.97
2024-01-14T12:44:45.077Z,10.17
2024-01-14T12:47:13.378Z,15.17
2024-01-14T12:49:42.848Z,11.57
2024-01-14T12:52:11.602Z,12.93
2024-01-14T12:54:40.502Z,11.70
2024-01-14T12:59:39.496Z,13.60
2024-01-14T13:02:07.614Z,13.07
2024-01-14T13:04:35.707Z,14.50
2024-01-14T13:07:12.304Z,13.87
2024-01-14T13:09:41.885Z,14.70
2024-01-14T13:12:10.439Z,15.87
2024-01-14T13:14:50.722Z,15.13
2024-01-14T13:17:18.855Z,14.57
2024-01-14T13:19:47.459Z,13.13
2024-01-14T13:22:17.316Z,14.27
2024-01-14T13:24:45.531Z,12.13
2024-01-14T13:27:14.001Z,13.90
2024-01-14T13:29:42.220Z,14.50
2024-01-14T13:32:10.593Z,14.60
2024-01-14T13:34:38.771Z,14.80
2024-01-14T13:37:06.937Z,13.00
2024-01-14T13:39:36.441Z,10.93
2024-01-14T13:42:04.575Z,12.60
2024-01-14T13:44:32.610Z,11.03
2024-01-14T13:47:01.039Z,12.47
2024-01-14T13:49:29.422Z,13.30
2024-01-14T13:51:57.664Z,11.97
2024-01-14T13:54:25.820Z,11.47
2024-01-14T13:56:56.088Z,12.43
2024-01-14T13:59:27.222Z,11.00
2024-01-14T14:01:58.984Z,10.83
2024-01-14T14:04:28.173Z,9.93
2024-01-14T14:06:56.569Z,9.07
2024-01-14T14:09:26.580Z,10.60
2024-01-14T14:11:56.479Z,9.83
2024-01-14T14:14:24.636Z,10.57
2024-01-14T14:16:52.713Z,9.93
2024-01-14T14:19:23.077Z,11.43
2024-01-14T14:21:59.683Z,12.60
2024-01-14T14:24:33.289Z,13.10
2024-01-14T14:27:09.743Z,13.70
2024-01-14T14:29:38.331Z,12.87
2024-01-14T14:32:09.014Z,11.90
2024-01-14T14:34:40.087Z,12.07
2024-01-14T14:37:09.502Z,14.87
2024-01-14T14:39:37.742Z,10.60
2024-01-14T14:42:08.388Z,10.47
2024-01-14T14:44:37.163Z,11.83
2024-01-14T14:47:18.640Z,13.40
2024-01-14T14:49:48.858Z,12.07
2024-01-14T14:52:17.562Z,12.83
2024-01-14T14:54:46.950Z,10.40
2024-01-14T14:57:17.152Z,14.87
2024-01-14T14:59:47.761Z,13.73
2024-01-14T15:02:21.650Z,12.77
2024-01-14T15:04:53.093Z,15.30
2024-01-14T15:07:21.593Z,16.40
2024-01-14T15:09:50.331Z,17.73
2024-01-14T15:12:19.929Z,16.87
2024-01-14T15:14:51.918Z,16.03
2024-01-14T15:17:24.125Z,15.37
2024-01-14T15:19:54.876Z,16.83
2024-01-14T15:22:23.358Z,17.40
2024-01-14T15:25:00.212Z,15.53
2024-01-14T15:27:35.147Z,13.90
2024-01-14T15:30:03.904Z,16.10
2024-01-14T15:32:57.281Z,15.17
2024-01-14T15:35:35.506Z,15.60
2024-01-14T15:38:11.772Z,18.37
2024-01-14T15:40:47.770Z,16.87
2024-01-14T15:43:37.188Z,14.63
2024-01-14T15:46:07.623Z,18.13
2024-01-14T15:48:44.183Z,15.87
2024-01-14T15:51:17.170Z,13.47
2024-01-14T15:54:01.040Z,16.73
2024-01-14T15:56:42.520Z,14.63
2024-01-14T15:59:22.538Z,15.30
2024-01-14T16:01:58.174Z,14.87
2024-01-14T16:04:49.071Z,16.90
2024-01-14T16:07:20.988Z,14.33
2024-01-14T16:09:53.015Z,11.77
2024-01-14T16:12:41.389Z,14.83
2024-01-14T16:15:11.897Z,14.40
2024-01-14T16:17:42.311Z,14.90
2024-01-14T16:20:14.749Z,16.07
2024-01-14T16:22:55.109Z,13.70
2024-01-14T16:25:24.078Z,14.17
2024-01-14T16:28:01.685Z,13.10
2024-01-14T16:30:32.550Z,18.63
2024-01-14T16:33:03.311Z,15.43
2024-01-14T16:35:40.486Z,19.70
2024-01-14T16:38:17.501Z,17.23
2024-01-14T16:40:56.436Z,17.50
2024-01-14T16:43:30.113Z,21.80
2024-01-14T16:46:04.218Z,23.50
2024-01-14T16:48:44.508Z,19.40
2024-01-14T16:51:14.189Z,15.50
2024-01-14T16:53:46.737Z,24.57
2024-01-14T16:56:19.185Z,20.50
2024-01-14T16:58:48.394Z,17.97
2024-01-14T17:01:20.537Z,16.83
2024-01-14T17:03:51.005Z,18.73
2024-01-14T17:06:25.546Z,20.97
2024-01-14T17:09:02.634Z,15.47
2024-01-14T17:12:09.380Z,15.40
2024-01-14T17:18:01.347Z,23.60
2024-01-14T17:20:40.694Z,22.33
2024-01-14T17:23:32.691Z,17.80
2024-01-14T17:26:08.279Z,20.13
2024-01-14T17:28:42.733Z,21.73
2024-01-14T17:31:27.253Z,21.43
2024-01-14T17:34:24.206Z,15.83
2024-01-14T17:36:56.871Z,18.63
2024-01-14T17:39:39.098Z,20.43
2024-01-14T17:42:17.617Z,17.30
2024-01-14T17:44:58.956Z,21.27
2024-01-14T17:47:37.416Z,19.07
2024-01-14T17:50:31.349Z,17.20
2024-01-14T17:56:16.137Z,19.73
2024-01-14T17:59:00.413Z,20.33
2024-01-14T18:01:28.697Z,19.60
2024-01-14T18:03:56.962Z,17.20
2024-01-14T18:06:26.442Z,20.47
2024-01-14T18:08:56.305Z,21.17
2024-01-14T18:11:24.277Z,22.47
2024-01-14T18:13:52.467Z,19.93
2024-01-14T18:16:20.524Z,21.73
2024-01-14T18:18:56.108Z,26.77
2024-01-14T18:21:25.229Z,25.43
2024-01-14T18:23:54.650Z,22.37
2024-01-14T18:26:25.514Z,22.37
2024-01-14T18:28:53.658Z,21.80
2024-01-14T18:31:26.393Z,24.37
2024-01-14T18:33:54.625Z,27.03
2024-01-14T18:36:25.055Z,21.93
2024-01-14T18:38:54.321Z,20.10
2024-01-14T18:41:22.298Z,21.83
2024-01-14T18:43:50.407Z,22.03
2024-01-14T18:46:18.476Z,20.40
2024-01-14T18:48:46.537Z,22.00
2024-01-14T18:51:14.615Z,20.70
2024-01-14T18:53:44.319Z,24.83
2024-01-14T18:56:13.804Z,24.13
2024-01-14T18:58:41.846Z,24.63
2024-01-14T19:01:10.099Z,26.53
2024-01-14T19:03:40.479Z,23.47
2024-01-14T19:06:08.797Z,26.93
2024-01-14T19:08:38.055Z,22.73
2024-01-14T19:11:07.176Z,19.53
2024-01-14T19:13:36.453Z,21.50
2024-01-14T19:16:04.749Z,23.93
2024-01-14T19:18:33.341Z,21.50
2024-01-14T19:21:04.093Z,23.27
2024-01-14T19:23:34.261Z,23.80
2024-01-14T19:26:04.538Z,24.37
2024-01-14T19:28:32.609Z,21.50
2024-01-14T19:31:04.640Z,22.10
2024-01-14T19:33:33.977Z,22.63
2024-01-14T19:36:03.627Z,23.17
2024-01-14T19:38:31.785Z,25.27
2024-01-14T19:41:00.969Z,28.47
2024-01-14T19:43:33.344Z,24.07
2024-01-14T19:46:34.422Z,25.00
2024-01-14T19:49:03.625Z,33.37
2024-01-14T19:51:35.304Z,27.73
2024-01-14T19:54:04.983Z,21.17
2024-01-14T19:56:40.000Z,22.53
2024-01-14T19:59:07.096Z,24.40
2024-01-14T20:01:36.557Z,25.50
2024-01-14T20:04:05.588Z,21.97
2024-01-14T20:06:33.580Z,21.97
2024-01-14T20:09:03.965Z,23.00
2024-01-14T20:11:32.109Z,19.93
2024-01-14T20:14:04.495Z,23.30
2024-01-14T20:16:33.976Z,20.57
2024-01-14T20:19:06.900Z,19.63
2024-01-14T20:21:35.428Z,17.60
2024-01-14T20:24:10.933Z,19.63
2024-01-14T20:26:38.776Z,21.30
2024-01-14T20:29:06.919Z,21.43
2024-01-14T20:31:36.082Z,25.43
2024-01-14T20:34:06.135Z,24.90
2024-01-14T20:36:34.210Z,23.20
2024-01-14T20:39:02.940Z,23.30
2024-01-14T20:41:31.184Z,20.63
2024-01-14T20:44:05.218Z,22.63
2024-01-14T20:46:33.686Z,24.10
2024-01-14T20:49:01.927Z,22.37
2024-01-14T20:51:33.990Z,23.17
2024-01-14T20:54:10.797Z,22.60
2024-01-14T20:56:40.690Z,21.07
2024-01-14T20:59:18.279Z,20.87
2024-01-14T21:01:48.331Z,20.27
2024-01-14T21:04:17.222Z,18.13
2024-01-14T21:07:02.689Z,22.80
2024-01-14T21:09:32.201Z,20.67
2024-01-14T21:12:01.128Z,19.13
2024-01-14T21:14:30.058Z,19.57
2024-01-14T21:16:59.473Z,19.53
2024-01-14T21:19:32.408Z,19.83
2024-01-14T21:22:08.469Z,19.03
2024-01-14T21:24:37.113Z,20.93
2024-01-14T21:27:08.815Z,20.77
2024-01-14T21:29:37.969Z,26.20
2024-01-14T21:32:11.925Z,26.43
2024-01-14T21:34:40.750Z,25.53
2024-01-14T21:37:13.666Z,25.63
2024-01-14T21:39:44.014Z,30.00
2024-01-14T21:42:26.727Z,24.47
2024-01-14T21:44:58.166Z,28.27
2024-01-14T21:47:26.909Z,24.57
2024-01-14T21:49:57.297Z,25.03
2024-01-14T21:52:27.436Z,28.70
2024-01-14T21:55:01.790Z,23.17
2024-01-14T21:57:35.897Z,27.50
2024-01-14T22:00:13.858Z,24.87
2024-01-14T22:02:42.742Z,23.87
2024-01-14T22:05:11.099Z,24.83
2024-01-14T22:07:40.421Z,25.40
2024-01-14T22:10:09.233Z,24.93
2024-01-14T22:12:37.362Z,22.87
2024-01-14T22:15:08.397Z,24.10
2024-01-14T22:17:37.104Z,28.27
2024-01-14T22:20:08.822Z,22.00
2024-01-14T22:22:37.252Z,27.63
2024-01-14T22:25:12.087Z,30.07
2024-01-14T22:27:40.777Z,24.43
2024-01-14T22:30:15.483Z,23.60
2024-01-14T22:32:44.150Z,26.27
2024-01-14T22:35:13.623Z,28.97
2024-01-14T22:37:41.849Z,27.07
2024-01-14T22:40:12.196Z,25.63
2024-01-14T22:42:40.441Z,28.20
2024-01-14T22:45:08.401Z,28.13
2024-01-14T22:47:36.777Z,29.97
2024-01-14T22:50:05.426Z,34.20
2024-01-14T22:52:33.363Z,27.03
2024-01-14T22:55:01.288Z,30.87
2024-01-14T22:57:32.553Z,28.40
2024-01-14T23:00:00.774Z,32.17
2024-01-14T23:02:28.956Z,33.47
2024-01-14T23:04:56.923Z,29.23
2024-01-14T23:07:25.001Z,23.53
2024-01-14T23:09:53.597Z,26.23
2024-01-14T23:12:21.590Z,27.13
2024-01-14T23:14:53.902Z,27.83
2024-01-14T23:17:22.195Z,25.40
2024-01-14T23:19:53.046Z,30.83
2024-01-14T23:22:21.007Z,28.90
2024-01-14T23:24:50.813Z,30.30
2024-01-14T23:27:18.778Z,33.33
2024-01-14T23:29:47.423Z,29.97
2024-01-14T23:32:23.075Z,28.77
2024-01-14T23:34:51.343Z,25.83
2024-01-14T23:37:19.413Z,29.93
2024-01-14T23:39:50.526Z,34.27
2024-01-14T23:42:18.714Z,31.50
2024-01-14T23:44:46.735Z,32.73
2024-01-14T23:47:14.665Z,31.13
2024-01-14T23:49:46.946Z,31.73
2024-01-14T23:52:14.910Z,30.13
2024-01-14T23:54:42.829Z,29.87
2024-01-14T23:57:10.862Z,36.08
2024-01-14T23:59:37.963Z,32.27
